Time;durP1;ratioP1;P1;durP2;ratioP2;P2;SDS_P1;SDS_P2;PMS_P1;PMS_P2;Temp;Humidity;BMP_temperature;BMP_pressure;BME280_temperature;BME280_humidity;BME280_pressure;Samples;Min_cycle;Max_cycle;Signal;HPM_P1;HPM_P2
2023/03/20 00:00:47;;;;;;;21.63;16.03;;;9.10;3.20;;;;;;8307475;28;20222;-83
2023/03/20 00:04:48;;;;;;;20.17;15.67;;;9.00;83.70;;;;;;8304911;28;20188;-82
2023/03/20 00:08:51;;;;;;;20.97;15.20;;;9.00;99.90;;;;;;8299101;28;20183;-81
2023/03/20 00:12:52;;;;;;;20.47;16.13;;;9.00;99.90;;;;;;8301297;28;20229;-82
2023/03/20 00:16:53;;;;;;;21.07;16.53;;;9.00;99.90;;;;;;8306692;28;20198;-82
2023/03/20 00:20:54;;;;;;;20.60;16.07;;;9.00;99.90;;;;;;8304127;28;20210;-84
2023/03/20 00:24:55;;;;;;;22.70;16.33;;;9.00;1.00;;;;;;8302564;28;20188;-82
2023/03/20 00:28:56;;;;;;;22.03;17.73;;;9.00;44.00;;;;;;8300981;28;20244;-82
2023/03/20 00:32:58;;;;;;;20.63;15.53;;;9.00;99.90;;;;;;8301069;28;20178;-83
2023/03/20 00:36:58;;;;;;;21.77;15.30;;;8.90;99.90;;;;;;8309147;28;20315;-82
2023/03/20 00:40:59;;;;;;;16.70;14.83;;;9.00;1.00;;;;;;8299025;28;20210;-82
2023/03/20 00:45:01;;;;;;;17.40;14.20;;;9.00;1.00;;;;;;8302410;28;20269;-82
2023/03/20 00:49:02;;;;;;;19.67;14.33;;;9.00;94.30;;;;;;8305846;28;20240;-83
2023/03/20 00:53:03;;;;;;;18.27;14.57;;;8.90;99.90;;;;;;8300538;28;20182;-82
2023/03/20 00:57:22;;;;;;;17.43;14.77;;;8.90;99.90;;;;;;8303503;28;20183;-82
2023/03/20 01:01:23;;;;;;;18.97;15.10;;;8.90;1.00;;;;;;8299225;28;20207;-82
2023/03/20 01:05:27;;;;;;;22.27;15.80;;;8.90;99.90;;;;;;8313153;28;20210;-82
2023/03/20 01:09:28;;;;;;;20.80;14.70;;;8.90;99.90;;;;;;8309100;28;20194;-82
2023/03/20 01:13:31;;;;;;;21.67;15.30;;;8.90;99.90;;;;;;8313197;28;20186;-82
2023/03/20 01:17:32;;;;;;;22.03;16.77;;;8.80;99.90;;;;;;8304271;28;20202;-82
2023/03/20 01:21:33;;;;;;;25.50;18.03;;;8.80;99.90;;;;;;8310680;28;20275;-82
2023/03/20 01:25:34;;;;;;;22.80;17.37;;;8.80;99.90;;;;;;8310736;28;20186;-81
2023/03/20 01:29:35;;;;;;;25.50;18.30;;;8.80;99.90;;;;;;8307823;28;20513;-81
2023/03/20 01:33:37;;;;;;;25.37;18.33;;;8.80;99.90;;;;;;8306566;28;20308;-81
2023/03/20 01:37:38;;;;;;;26.83;18.73;;;8.80;99.90;;;;;;8303285;28;20214;-81
2023/03/20 01:41:39;;;;;;;27.87;20.70;;;8.80;99.90;;;;;;8310654;28;20260;-81
2023/03/20 01:45:48;;;;;;;24.07;20.37;;;8.70;99.90;;;;;;8308213;28;20189;-81
2023/03/20 01:50:22;;;;;;;25.87;19.87;;;8.70;99.90;;;;;;8305631;28;20193;-80
2023/03/20 01:54:28;;;;;;;26.47;20.27;;;8.70;99.90;;;;;;8312825;28;20187;-81
2023/03/20 01:58:38;;;;;;;25.43;20.40;;;8.70;99.90;;;;;;8311898;28;20274;-81
2023/03/20 02:02:39;;;;;;;25.23;19.33;;;8.70;99.90;;;;;;8312551;28;20382;-81
2023/03/20 02:06:43;;;;;;;26.03;19.53;;;8.70;99.90;;;;;;8304677;28;20214;-80
2023/03/20 02:10:45;;;;;;;25.03;17.37;;;8.70;99.90;;;;;;8311442;28;20184;-82
2023/03/20 02:14:47;;;;;;;22.20;16.27;;;8.70;99.90;;;;;;8304698;28;20183;-82
2023/03/20 02:18:51;;;;;;;21.43;16.40;;;8.70;99.90;;;;;;8306214;28;20222;-82
2023/03/20 02:23:22;;;;;;;22.00;16.63;;;8.70;99.90;;;;;;8304563;28;20268;-82
2023/03/20 02:27:50;;;;;;;21.77;17.77;;;8.70;99.90;;;;;;8302316;28;20238;-81
2023/03/20 02:32:28;;;;;;;20.97;17.03;;;8.80;99.90;;;;;;8304616;28;20215;-82
2023/03/20 02:37:12;;;;;;;23.67;19.07;;;8.80;99.90;;;;;;8299060;28;20281;-81
2023/03/20 02:41:35;;;;;;;22.40;17.67;;;8.80;99.90;;;;;;8290620;28;20211;-82
2023/03/20 02:45:39;;;;;;;26.73;19.20;;;8.80;99.90;;;;;;8303868;28;20273;-82
2023/03/20 02:49:59;;;;;;;24.30;20.53;;;8.80;99.90;;;;;;8306324;28;20190;-82
2023/03/20 02:54:31;;;;;;;24.07;19.80;;;8.80;99.90;;;;;;8300968;28;20183;-81
2023/03/20 02:59:02;;;;;;;23.13;18.10;;;8.80;99.90;;;;;;8299406;28;20277;-82
2023/03/20 03:03:31;;;;;;;22.37;18.17;;;8.80;99.90;;;;;;8292124;28;20195;-82
2023/03/20 03:07:35;;;;;;;25.57;20.33;;;8.80;99.90;;;;;;8301119;28;20190;-82
2023/03/20 03:11:42;;;;;;;24.37;19.50;;;8.80;99.90;;;;;;8305472;28;20190;-82
2023/03/20 03:15:50;;;;;;;26.20;20.93;;;8.80;99.90;;;;;;8311088;28;20191;-82
2023/03/20 03:19:57;;;;;;;24.27;19.90;;;8.80;99.90;;;;;;8305134;28;20219;-82
2023/03/20 03:23:58;;;;;;;27.33;20.73;;;8.70;99.90;;;;;;8305771;28;20197;-82
2023/03/20 03:28:07;;;;;;;25.83;20.37;;;8.70;99.90;;;;;;8305248;28;20245;-82
2023/03/20 03:32:22;;;;;;;28.03;21.07;;;8.70;99.90;;;;;;8304877;28;20219;-82
2023/03/20 03:36:29;;;;;;;26.77;22.00;;;8.70;99.90;;;;;;8305350;28;20206;-81
2023/03/20 03:40:52;;;;;;;26.73;21.77;;;8.60;99.90;;;;;;8303234;28;20203;-82
2023/03/20 03:44:59;;;;;;;26.93;22.07;;;8.50;99.90;;;;;;8306878;28;20187;-81
2023/03/20 03:49:01;;;;;;;25.97;21.13;;;8.40;99.90;;;;;;8301127;28;20191;-82
2023/03/20 03:53:10;;;;;;;26.97;21.53;;;8.40;99.90;;;;;;8305968;28;20195;-81
2023/03/20 03:57:15;;;;;;;27.50;20.83;;;8.30;99.90;;;;;;8304080;28;20187;-82
2023/03/20 04:01:17;;;;;;;25.03;21.10;;;8.30;99.90;;;;;;8302815;28;20217;-81
2023/03/20 04:05:20;;;;;;;28.90;22.23;;;8.20;99.90;;;;;;8303075;28;20216;-82
2023/03/20 04:09:21;;;;;;;26.73;21.93;;;8.20;99.90;;;;;;8288271;28;20186;-81
2023/03/20 04:13:22;;;;;;;26.67;20.87;;;8.20;99.90;;;;;;8306810;28;20222;-81
2023/03/20 04:17:22;;;;;;;28.73;21.97;;;8.20;99.90;;;;;;8306788;28;20565;-82
2023/03/20 04:21:23;;;;;;;26.53;22.60;;;8.20;99.90;;;;;;8303758;28;20220;-81
2023/03/20 04:25:25;;;;;;;29.53;23.60;;;8.20;99.90;;;;;;8303017;28;20179;-82
2023/03/20 04:29:26;;;;;;;26.17;21.07;;;8.20;99.90;;;;;;8305839;28;20205;-81
2023/03/20 04:33:27;;;;;;;28.10;21.40;;;8.30;99.90;;;;;;8307647;28;20231;-81
2023/03/20 04:37:29;;;;;;;29.30;23.63;;;8.20;99.90;;;;;;8305457;28;20211;-82
2023/03/20 04:41:30;;;;;;;28.40;21.17;;;8.20;99.90;;;;;;8298531;28;20207;-82
2023/03/20 04:45:30;;;;;;;24.20;19.50;;;8.30;99.90;;;;;;8294961;28;20194;-82
2023/03/20 04:49:31;;;;;;;27.43;20.80;;;8.20;99.90;;;;;;8297879;28;20232;-81
2023/03/20 04:53:32;;;;;;;24.73;20.23;;;8.30;99.90;;;;;;8308937;28;20267;-82
2023/03/20 04:57:33;;;;;;;28.20;20.70;;;8.30;99.90;;;;;;8306138;28;20195;-82
2023/03/20 05:01:34;;;;;;;27.70;20.90;;;8.30;99.90;;;;;;8309538;28;20215;-80
2023/03/20 05:05:36;;;;;;;26.97;20.87;;;8.30;99.90;;;;;;8304844;28;20251;-81
2023/03/20 05:09:37;;;;;;;28.83;21.80;;;8.30;99.90;;;;;;8307276;28;20198;-81
2023/03/20 05:13:38;;;;;;;25.93;20.70;;;8.30;99.90;;;;;;8316629;28;20167;-79
2023/03/20 05:17:39;;;;;;;25.13;21.23;;;8.30;99.90;;;;;;8343744;28;20345;-79
2023/03/20 05:21:40;;;;;;;28.43;21.03;;;8.40;99.90;;;;;;8324385;28;20274;-78
2023/03/20 05:25:41;;;;;;;26.93;21.20;;;8.40;99.90;;;;;;8301673;28;20221;-78
2023/03/20 05:29:41;;;;;;;25.77;21.67;;;8.40;99.90;;;;;;8307978;28;20210;-78
2023/03/20 05:33:43;;;;;;;26.27;20.63;;;8.50;99.90;;;;;;8304155;28;20192;-78
2023/03/20 05:37:44;;;;;;;25.77;20.93;;;8.50;99.90;;;;;;8302105;28;20345;-78
2023/03/20 05:41:45;;;;;;;24.63;20.37;;;8.50;99.90;;;;;;8296542;28;20222;-79
2023/03/20 05:45:45;;;;;;;26.87;22.17;;;8.50;99.90;;;;;;8304590;28;20497;-78
2023/03/20 05:49:46;;;;;;;28.70;22.30;;;8.50;99.90;;;;;;8303937;28;20202;-79
2023/03/20 05:53:47;;;;;;;25.03;20.40;;;8.50;99.90;;;;;;8310157;28;20186;-78
2023/03/20 05:57:48;;;;;;;26.97;19.53;;;8.50;99.90;;;;;;8300771;28;20198;-79
2023/03/20 06:01:49;;;;;;;26.73;21.33;;;8.50;99.90;;;;;;8310820;28;20213;-78
2023/03/20 06:05:50;;;;;;;27.40;19.83;;;8.60;99.90;;;;;;8309628;28;20187;-78
2023/03/20 06:09:50;;;;;;;23.47;20.83;;;8.60;99.90;;;;;;8311075;28;20209;-78
2023/03/20 06:13:54;;;;;;;24.47;20.53;;;8.70;99.90;;;;;;8310061;28;20249;-78
2023/03/20 06:17:56;;;;;;;24.03;19.53;;;8.80;99.90;;;;;;8307299;28;20214;-78
2023/03/20 06:21:56;;;;;;;23.70;18.93;;;8.90;99.90;;;;;;8312781;28;20316;-78
2023/03/20 06:25:57;;;;;;;26.00;20.27;;;9.00;99.90;;;;;;8311557;28;20175;-78
2023/03/20 06:29:58;;;;;;;24.13;19.90;;;9.10;99.90;;;;;;8304967;28;20190;-79
2023/03/20 06:33:59;;;;;;;26.03;20.20;;;9.10;99.90;;;;;;8307633;28;20238;-79
2023/03/20 06:38:00;;;;;;;25.70;19.63;;;9.20;99.90;;;;;;8301135;28;20202;-79
2023/03/20 06:42:00;;;;;;;26.70;18.90;;;9.30;99.90;;;;;;8302484;28;20202;-79
2023/03/20 06:46:01;;;;;;;23.27;18.23;;;9.40;99.90;;;;;;8303944;28;20266;-79
2023/03/20 06:50:03;;;;;;;22.40;18.87;;;9.50;99.90;;;;;;8302056;28;20191;-79
2023/03/20 06:54:04;;;;;;;26.50;17.97;;;9.60;99.90;;;;;;8302783;28;20218;-79
2023/03/20 06:58:05;;;;;;;20.37;16.80;;;9.70;99.90;;;;;;8310018;28;20188;-79
2023/03/20 07:02:07;;;;;;;17.77;15.80;;;9.70;99.90;;;;;;8299650;28;20714;-79
2023/03/20 07:06:10;;;;;;;20.17;16.57;;;9.80;99.90;;;;;;8301991;28;20188;-79
2023/03/20 07:10:11;;;;;;;19.90;16.23;;;9.80;99.90;;;;;;8305254;28;20219;-79
2023/03/20 07:14:12;;;;;;;21.47;16.53;;;9.90;99.90;;;;;;8306701;28;20290;-78
2023/03/20 07:18:13;;;;;;;20.33;14.47;;;10.00;99.90;;;;;;8303955;28;20664;-78
2023/03/20 07:22:28;;;;;;;18.50;15.80;;;10.20;99.90;;;;;;8305342;28;20227;-77
2023/03/20 07:26:29;;;;;;;18.77;14.97;;;10.30;99.90;;;;;;8307199;28;20193;-77
2023/03/20 07:30:31;;;;;;;16.13;13.30;;;10.40;99.90;;;;;;8313475;28;20203;-77
2023/03/20 07:34:31;;;;;;;15.17;11.87;;;10.60;99.90;;;;;;8301370;28;20344;-78
2023/03/20 07:38:32;;;;;;;15.57;13.00;;;10.80;99.90;;;;;;8312215;28;20241;-77
2023/03/20 07:42:33;;;;;;;15.27;12.67;;;11.00;99.90;;;;;;8303186;28;20551;-78
2023/03/20 07:46:34;;;;;;;14.27;12.30;;;11.20;99.90;;;;;;8312605;28;20181;-78
2023/03/20 07:50:35;;;;;;;11.87;10.07;;;11.30;99.90;;;;;;8303099;28;20193;-78
2023/03/20 07:54:36;;;;;;;12.90;10.33;;;11.40;99.90;;;;;;8303471;28;20320;-77
2023/03/20 07:58:36;;;;;;;13.00;10.60;;;11.50;99.90;;;;;;8310991;28;20196;-77
2023/03/20 08:02:37;;;;;;;11.50;9.80;;;11.60;99.90;;;;;;8314844;28;20213;-78
2023/03/20 08:06:38;;;;;;;11.90;10.70;;;11.60;99.90;;;;;;8310509;28;20194;-78
2023/03/20 08:10:39;;;;;;;11.23;9.77;;;11.70;99.90;;;;;;8336459;28;20186;-79
2023/03/20 08:14:42;;;;;;;12.73;9.13;;;11.90;99.00;;;;;;8346806;28;20170;-78
2023/03/20 08:18:42;;;;;;;9.50;8.43;;;11.80;1.00;;;;;;8350918;28;20213;-79
2023/03/20 08:22:44;;;;;;;10.23;8.50;;;11.90;99.90;;;;;;8347430;28;20189;-78
2023/03/20 08:26:45;;;;;;;9.50;7.90;;;12.10;1.00;;;;;;8331899;28;20408;-78
2023/03/20 08:30:48;;;;;;;8.53;7.40;;;12.30;99.90;;;;;;8309274;28;20191;-77
2023/03/20 08:34:49;;;;;;;10.10;7.03;;;12.60;1.00;;;;;;8302238;28;20309;-78
2023/03/20 08:38:50;;;;;;;8.00;6.60;;;12.70;1.00;;;;;;8297908;28;20195;-78
2023/03/20 08:42:50;;;;;;;7.33;6.63;;;13.00;1.00;;;;;;8302021;28;20562;-77
2023/03/20 08:46:53;;;;;;;8.63;6.97;;;13.20;99.90;;;;;;8301176;28;20232;-78
2023/03/20 08:50:54;;;;;;;7.37;6.57;;;13.00;99.90;;;;;;8303518;28;20528;-78
2023/03/20 08:54:55;;;;;;;8.90;6.87;;;12.60;99.90;;;;;;8302364;28;20245;-78
2023/03/20 08:58:56;;;;;;;8.60;7.00;;;12.50;1.00;;;;;;8302623;28;20210;-78
2023/03/20 09:02:57;;;;;;;7.97;6.70;;;12.80;1.00;;;;;;8302351;28;20201;-78
2023/03/20 09:07:00;;;;;;;8.17;6.97;;;12.90;1.00;;;;;;8306572;28;20175;-78
2023/03/20 09:11:01;;;;;;;8.50;6.37;;;12.70;1.00;;;;;;8300552;28;20232;-78
2023/03/20 09:15:04;;;;;;;7.50;6.40;;;12.70;1.00;;;;;;8300379;28;20179;-78
2023/03/20 09:19:05;;;;;;;8.00;6.43;;;13.00;1.00;;;;;;8310047;28;20305;-78
2023/03/20 09:23:06;;;;;;;6.80;6.10;;;13.20;99.90;;;;;;8301399;28;20175;-78
2023/03/20 09:27:07;;;;;;;8.27;6.80;;;13.40;99.90;;;;;;8314770;28;20180;-79
2023/03/20 09:31:08;;;;;;;7.83;6.57;;;13.20;99.90;;;;;;8315460;28;20190;-78
2023/03/20 09:35:09;;;;;;;7.70;6.10;;;13.20;99.90;;;;;;8315059;28;20206;-78
2023/03/20 09:39:10;;;;;;;8.20;6.33;;;13.40;99.90;;;;;;8306487;28;20260;-78
2023/03/20 09:43:29;;;;;;;7.03;6.33;;;13.50;99.90;;;;;;8310768;28;20185;-78
2023/03/20 09:47:42;;;;;;;6.97;5.73;;;13.90;20.50;;;;;;8305999;28;20187;-78
2023/03/20 09:51:54;;;;;;;10.13;5.83;;;14.30;18.40;;;;;;8316133;28;20211;-78
2023/03/20 09:55:57;;;;;;;7.00;5.20;;;14.70;1.00;;;;;;8306868;28;20237;-78
2023/03/20 10:00:06;;;;;;;6.03;5.10;;;14.50;1.00;;;;;;8312400;28;20216;-78
2023/03/20 10:04:09;;;;;;;5.93;5.37;;;14.50;1.00;;;;;;8307492;28;20549;-78
2023/03/20 10:08:15;;;;;;;6.03;4.63;;;14.70;1.00;;;;;;8305390;28;20264;-79
2023/03/20 10:12:34;;;;;;;5.43;4.17;;;14.90;1.00;;;;;;8305852;28;20440;-78
2023/03/20 10:17:03;;;;;;;6.23;4.77;;;15.40;1.00;;;;;;8308704;28;20194;-78
2023/03/20 10:21:06;;;;;;;6.70;5.50;;;15.40;99.90;;;;;;8307403;28;20207;-78
2023/03/20 10:25:29;;;;;;;7.70;5.53;;;14.70;1.00;;;;;;8305467;28;20191;-78
2023/03/20 10:29:52;;;;;;;6.93;5.73;;;14.40;1.00;;;;;;8312546;28;20229;-78
2023/03/20 10:34:01;;;;;;;6.00;5.07;;;14.20;1.00;;;;;;8309692;28;20202;-78
2023/03/20 10:38:21;;;;;;;6.47;5.53;;;14.20;9.90;;;;;;8300219;28;20282;-78
2023/03/20 10:42:37;;;;;;;7.57;5.67;;;14.50;1.00;;;;;;8313285;28;20432;-78
2023/03/20 10:46:43;;;;;;;6.80;6.20;;;14.40;1.00;;;;;;8317184;28;20214;-78
2023/03/20 10:50:52;;;;;;;7.70;4.93;;;14.40;1.00;;;;;;8307975;28;20187;-78
2023/03/20 10:54:59;;;;;;;5.30;4.80;;;14.50;1.00;;;;;;8305614;28;20187;-78
2023/03/20 10:59:07;;;;;;;6.67;6.00;;;14.40;1.00;;;;;;8286297;28;20333;-78
2023/03/20 11:03:19;;;;;;;6.77;6.00;;;14.20;1.00;;;;;;8302354;28;20191;-78
2023/03/20 11:07:32;;;;;;;7.47;6.10;;;14.20;1.00;;;;;;8306475;28;20183;-78
2023/03/20 11:11:33;;;;;;;5.53;5.03;;;14.40;1.00;;;;;;8304741;28;20257;-78
2023/03/20 11:15:34;;;;;;;7.27;6.10;;;14.80;1.00;;;;;;8309980;28;20187;-79
2023/03/20 11:19:37;;;;;;;5.37;4.87;;;15.10;1.00;;;;;;8315402;28;20222;-78
2023/03/20 11:23:38;;;;;;;8.03;6.73;;;14.90;1.00;;;;;;8319206;28;20214;-77
2023/03/20 11:27:39;;;;;;;6.87;6.10;;;14.70;99.90;;;;;;8340357;28;20198;-79
2023/03/20 11:31:40;;;;;;;7.93;6.63;;;14.20;1.00;;;;;;8340320;28;20189;-78
2023/03/20 11:35:46;;;;;;;7.20;6.60;;;14.00;1.00;;;;;;8348758;28;20209;-78
2023/03/20 11:40:04;;;;;;;7.97;5.97;;;13.90;1.00;;;;;;8347627;28;20242;-77
2023/03/20 11:44:21;;;;;;;7.73;6.93;;;13.90;1.00;;;;;;8345689;28;20234;-78
2023/03/20 11:48:46;;;;;;;6.30;5.70;;;13.70;12.10;;;;;;8321507;28;20241;-78
2023/03/20 11:52:47;;;;;;;6.00;5.50;;;13.90;1.00;;;;;;8304164;28;20187;-77
2023/03/20 11:56:54;;;;;;;6.23;5.63;;;14.20;99.90;;;;;;8303758;28;20198;-77
2023/03/20 12:00:56;;;;;;;6.73;5.40;;;14.10;1.00;;;;;;8305334;28;20215;-78
2023/03/20 12:05:00;;;;;;;6.43;5.37;;;14.10;1.00;;;;;;8303655;28;20282;-77
2023/03/20 12:09:24;;;;;;;5.33;4.70;;;14.40;1.00;;;;;;8312037;28;20187;-77
2023/03/20 12:13:32;;;;;;;4.80;4.20;;;14.70;99.90;;;;;;8306640;28;20190;-78
2023/03/20 12:17:53;;;;;;;4.50;3.97;;;14.60;99.90;;;;;;8312126;28;20209;-78
2023/03/20 12:22:14;;;;;;;4.47;4.07;;;14.90;99.90;;;;;;8297952;28;20209;-78
2023/03/20 12:26:32;;;;;;;5.30;4.30;;;15.00;99.90;;;;;;8309244;28;20185;-77
2023/03/20 12:31:25;;;;;;;4.77;3.97;;;14.70;99.90;;;;;;8303254;28;20194;-77
2023/03/20 12:35:33;;;;;;;6.20;5.17;;;14.80;99.90;;;;;;8228224;28;20297;-78
2023/03/20 12:39:40;;;;;;;6.87;5.97;;;15.00;1.00;;;;;;8315319;28;20210;-77
2023/03/20 12:44:02;;;;;;;8.17;7.37;;;14.70;1.00;;;;;;8305097;28;20186;-77
2023/03/20 12:48:28;;;;;;;8.77;7.87;;;14.30;99.90;;;;;;8296835;28;20468;-78
2023/03/20 12:52:38;;;;;;;10.20;8.30;;;13.70;99.90;;;;;;8302938;28;20195;-77
2023/03/20 12:57:15;;;;;;;13.57;10.40;;;13.20;23.20;;;;;;8311813;28;20232;-77
2023/03/20 13:01:20;;;;;;;12.97;11.57;;;12.70;1.00;;;;;;8304633;28;20220;-77
2023/03/20 13:05:25;;;;;;;11.50;10.23;;;12.10;1.00;;;;;;8313450;28;20228;-77
2023/03/20 13:09:58;;;;;;;12.17;10.70;;;11.80;1.00;;;;;;8303467;28;20246;-78
2023/03/20 13:14:20;;;;;;;12.07;10.43;;;11.70;99.90;;;;;;8287213;28;20257;-77
2023/03/20 13:18:33;;;;;;;12.63;11.33;;;11.50;1.00;;;;;;8305129;28;20581;-77
2023/03/20 13:23:09;;;;;;;10.83;9.80;;;11.40;1.00;;;;;;8310783;28;20749;-78
2023/03/20 13:27:28;;;;;;;10.73;8.90;;;11.40;1.00;;;;;;8308038;28;20187;-78
2023/03/20 13:31:47;;;;;;;11.17;9.10;;;11.40;96.70;;;;;;8305595;28;20193;-78
2023/03/20 13:35:52;;;;;;;8.37;7.20;;;11.50;99.90;;;;;;8305995;28;20486;-78
2023/03/20 13:40:16;;;;;;;5.40;4.90;;;11.50;1.00;;;;;;8310045;28;20205;-78
2023/03/20 13:44:21;;;;;;;5.10;4.17;;;11.60;99.90;;;;;;8307504;28;20255;-78
2023/03/20 13:48:33;;;;;;;5.17;3.87;;;11.90;1.00;;;;;;8313683;28;20190;-78
2023/03/20 13:52:48;;;;;;;3.30;3.00;;;12.00;99.90;;;;;;8303261;28;20206;-78
2023/03/20 13:57:05;;;;;;;2.90;2.70;;;12.10;99.90;;;;;;8303125;28;20191;-78
2023/03/20 14:01:17;;;;;;;2.53;1.70;;;12.30;1.00;;;;;;8306200;28;20210;-78
2023/03/20 14:05:21;;;;;;;2.67;2.40;;;12.50;99.90;;;;;;8308655;28;20187;-78
2023/03/20 14:09:31;;;;;;;2.50;2.10;;;12.60;99.90;;;;;;8308293;28;20187;-78
2023/03/20 14:13:34;;;;;;;4.10;2.90;;;12.50;43.70;;;;;;8307913;28;20190;-78
2023/03/20 14:17:34;;;;;;;5.03;3.50;;;12.40;99.90;;;;;;8303659;28;20249;-78
2023/03/20 14:21:35;;;;;;;3.20;2.80;;;12.30;99.90;;;;;;8310768;28;20248;-78
2023/03/20 14:25:42;;;;;;;2.87;2.67;;;12.20;99.90;;;;;;8303852;28;20500;-78
2023/03/20 14:29:43;;;;;;;3.13;2.70;;;12.10;99.90;;;;;;8309538;28;20191;-78
2023/03/20 14:33:45;;;;;;;3.67;3.10;;;12.00;99.90;;;;;;8301795;28;20236;-78
2023/03/20 14:37:58;;;;;;;3.27;2.83;;;12.00;99.90;;;;;;8315262;28;20214;-78
2023/03/20 14:42:20;;;;;;;3.53;2.93;;;12.00;1.00;;;;;;8321606;28;20215;-78
2023/03/20 14:46:45;;;;;;;3.93;2.93;;;11.90;99.90;;;;;;8335855;28;20174;-78
2023/03/20 14:50:49;;;;;;;3.93;3.03;;;11.90;1.00;;;;;;8350358;28;20181;-78
2023/03/20 14:54:54;;;;;;;5.10;4.10;;;11.80;1.00;;;;;;8343563;28;20183;-79
2023/03/20 14:59:01;;;;;;;3.73;3.43;;;11.80;99.90;;;;;;8353924;28;20212;-78
2023/03/20 15:03:12;;;;;;;3.77;3.37;;;11.70;1.00;;;;;;8351291;28;20193;-78
2023/03/20 15:07:34;;;;;;;3.87;3.47;;;11.70;99.90;;;;;;8323522;28;20206;-78
2023/03/20 15:11:36;;;;;;;4.20;3.80;;;11.70;99.90;;;;;;8306033;28;20242;-78
2023/03/20 15:15:37;;;;;;;3.40;3.10;;;11.80;99.90;;;;;;8307429;28;20282;-78
2023/03/20 15:19:38;;;;;;;4.37;3.90;;;11.70;99.90;;;;;;8306817;28;20206;-78
2023/03/20 15:23:44;;;;;;;4.67;4.27;;;11.60;99.90;;;;;;8306501;28;20183;-78
2023/03/20 15:27:45;;;;;;;5.50;4.60;;;11.60;1.00;;;;;;8302469;28;20634;-78
2023/03/20 15:31:53;;;;;;;6.30;4.93;;;11.50;1.00;;;;;;8297129;28;20193;-78
2023/03/20 15:35:54;;;;;;;6.30;5.47;;;11.50;89.50;;;;;;8300087;28;21084;-78
2023/03/20 15:39:55;;;;;;;6.00;5.40;;;11.50;45.70;;;;;;8305621;28;20208;-78
2023/03/20 15:44:19;;;;;;;6.47;5.67;;;11.60;1.00;;;;;;8309920;28;20190;-78
2023/03/20 15:48:22;;;;;;;6.87;6.20;;;11.70;22.50;;;;;;8305581;28;20179;-78
2023/03/20 15:52:42;;;;;;;7.40;6.63;;;11.70;1.00;;;;;;8302816;28;20195;-78
2023/03/20 15:56:45;;;;;;;9.77;7.10;;;11.70;1.00;;;;;;8307709;28;20189;-78
2023/03/20 16:00:48;;;;;;;8.57;7.77;;;11.50;1.00;;;;;;8319012;28;20212;-78
2023/03/20 16:04:53;;;;;;;7.73;6.47;;;11.40;99.90;;;;;;8301199;28;20182;-78
2023/03/20 16:08:59;;;;;;;8.00;7.13;;;11.40;51.70;;;;;;8307492;28;20194;-78
2023/03/20 16:13:02;;;;;;;10.33;8.67;;;11.30;86.30;;;;;;8305504;28;20190;-78
2023/03/20 16:17:04;;;;;;;9.33;7.93;;;11.20;99.90;;;;;;8308483;28;20197;-78
2023/03/20 16:21:09;;;;;;;11.37;9.00;;;11.20;1.00;;;;;;8310163;28;20210;-78
2023/03/20 16:25:16;;;;;;;10.60;7.90;;;11.10;99.90;;;;;;8309537;28;20195;-78
2023/03/20 16:29:18;;;;;;;13.80;9.40;;;11.10;1.00;;;;;;8299756;28;20196;-79
2023/03/20 16:33:19;;;;;;;9.50;6.77;;;11.00;99.90;;;;;;8307385;28;20252;-78
2023/03/20 16:37:30;;;;;;;11.43;8.83;;;11.00;99.90;;;;;;8299299;28;20237;-78
2023/03/20 16:41:34;;;;;;;10.40;8.40;;;10.90;99.90;;;;;;8284369;28;20220;-78
2023/03/20 16:45:37;;;;;;;10.40;8.03;;;10.80;1.00;;;;;;8304200;28;20183;-78
2023/03/20 16:50:16;;;;;;;10.70;8.73;;;10.80;1.00;;;;;;8299874;28;20203;-79
2023/03/20 16:54:20;;;;;;;10.07;8.10;;;10.70;1.00;;;;;;8298283;28;20290;-78
2023/03/20 16:58:27;;;;;;;11.97;8.43;;;10.60;1.00;;;;;;8302111;28;20185;-78
2023/03/20 17:02:34;;;;;;;14.13;9.80;;;10.50;99.90;;;;;;8305807;28;20208;-78
2023/03/20 17:06:37;;;;;;;13.23;9.10;;;10.40;1.00;;;;;;8298699;28;20187;-78
2023/03/20 17:10:39;;;;;;;15.63;11.73;;;10.40;1.00;;;;;;8304944;28;20197;-78
2023/03/20 17:14:40;;;;;;;17.23;12.27;;;10.40;99.90;;;;;;8294596;28;20208;-78
2023/03/20 17:18:45;;;;;;;16.17;12.47;;;10.30;1.00;;;;;;8300593;28;20299;-78
2023/03/20 17:22:46;;;;;;;17.37;13.83;;;10.30;1.00;;;;;;8300854;28;20209;-78
2023/03/20 17:26:54;;;;;;;16.83;12.17;;;10.30;99.90;;;;;;8301318;28;20184;-78
2023/03/20 17:30:55;;;;;;;15.43;11.50;;;10.30;1.00;;;;;;8297371;28;20212;-79
2023/03/20 17:34:56;;;;;;;16.10;13.23;;;10.20;1.00;;;;;;8302545;28;20206;-84
2023/03/20 17:38:57;;;;;;;17.97;12.97;;;10.20;1.00;;;;;;8309529;28;20346;-82
2023/03/20 17:42:58;;;;;;;15.93;11.60;;;10.10;1.00;;;;;;8298386;28;20198;-82
2023/03/20 17:47:01;;;;;;;18.30;12.37;;;10.10;1.00;;;;;;8313531;28;20187;-82
2023/03/20 17:51:02;;;;;;;16.70;12.87;;;10.10;99.90;;;;;;8308936;28;20197;-82
2023/03/20 17:55:04;;;;;;;13.80;11.07;;;10.10;99.90;;;;;;8311878;28;20261;-83
2023/03/20 17:59:05;;;;;;;14.63;10.50;;;10.00;1.00;;;;;;8321430;28;20189;-83
2023/03/20 18:03:06;;;;;;;15.20;11.23;;;10.00;1.00;;;;;;8318645;28;20183;-82
2023/03/20 18:07:08;;;;;;;12.47;9.57;;;9.90;1.00;;;;;;8330871;28;20257;-82
2023/03/20 18:11:09;;;;;;;14.30;10.70;;;9.90;97.70;;;;;;8338298;28;20189;-84
2023/03/20 18:15:10;;;;;;;12.47;9.80;;;9.90;99.90;;;;;;8331221;28;20196;-82
2023/03/20 18:19:25;;;;;;;13.17;11.07;;;9.80;1.00;;;;;;8313656;28;20254;-82
2023/03/20 18:23:26;;;;;;;15.10;11.03;;;9.80;1.00;;;;;;8315450;28;20213;-82
2023/03/20 18:27:27;;;;;;;257.07;156.80;;;9.80;1.00;;;;;;8313960;28;20243;-82
2023/03/20 18:31:28;;;;;;;121.30;84.60;;;9.70;99.90;;;;;;8309046;28;20189;-82
2023/03/20 18:35:30;;;;;;;218.37;147.50;;;9.70;13.80;;;;;;8307331;28;20241;-82
2023/03/20 18:39:31;;;;;;;189.90;120.47;;;9.70;99.70;;;;;;8311761;28;20358;-82
2023/03/20 18:43:31;;;;;;;73.00;52.60;;;9.60;99.90;;;;;;8304926;28;20197;-81
2023/03/20 18:47:32;;;;;;;113.70;74.53;;;9.60;1.00;;;;;;8309367;28;20241;-82
2023/03/20 18:51:33;;;;;;;118.27;76.97;;;9.60;99.90;;;;;;8310711;28;20242;-82
2023/03/20 18:55:36;;;;;;;84.17;63.67;;;9.50;1.00;;;;;;8306392;28;20192;-81
2023/03/20 18:59:37;;;;;;;85.10;65.13;;;9.50;99.90;;;;;;8314973;28;20199;-81
2023/03/20 19:03:41;;;;;;;120.80;99.87;;;9.50;1.00;;;;;;8308549;28;20197;-83
2023/03/20 19:07:42;;;;;;;50.47;43.93;;;9.50;99.90;;;;;;8309620;28;20191;-82
2023/03/20 19:11:43;;;;;;;22.23;18.23;;;9.50;99.90;;;;;;8305672;28;20217;-82
2023/03/20 19:15:45;;;;;;;18.73;13.93;;;9.40;99.90;;;;;;8311292;28;20195;-82
2023/03/20 19:19:46;;;;;;;18.77;14.00;;;9.40;1.00;;;;;;8302854;28;20222;-82
2023/03/20 19:23:47;;;;;;;17.23;13.77;;;9.30;99.90;;;;;;8309143;28;20184;-82
2023/03/20 19:27:48;;;;;;;22.07;14.67;;;9.20;36.60;;;;;;8304216;28;20215;-81
2023/03/20 19:31:49;;;;;;;19.90;14.27;;;9.10;50.60;;;;;;8300500;28;20196;-82
2023/03/20 19:35:51;;;;;;;22.77;15.70;;;9.00;99.90;;;;;;8304014;28;20274;-82
2023/03/20 19:39:53;;;;;;;22.53;15.67;;;9.00;1.00;;;;;;8303594;28;20216;-83
2023/03/20 19:43:56;;;;;;;19.57;14.10;;;9.00;1.00;;;;;;8305724;28;20198;-83
2023/03/20 19:47:58;;;;;;;23.07;15.80;;;9.00;53.20;;;;;;8306723;28;20198;-82
2023/03/20 19:51:59;;;;;;;23.40;16.20;;;9.00;99.90;;;;;;8307216;28;20199;-82
2023/03/20 19:56:00;;;;;;;23.87;16.03;;;8.90;99.90;;;;;;8308357;28;20259;-83
2023/03/20 20:00:02;;;;;;;30.90;18.80;;;8.90;99.90;;;;;;8308173;28;20277;-82
2023/03/20 20:04:04;;;;;;;27.03;18.07;;;8.80;99.90;;;;;;8311726;28;20278;-82
2023/03/20 20:08:06;;;;;;;30.87;19.03;;;8.80;99.90;;;;;;8297402;28;20191;-81
2023/03/20 20:12:07;;;;;;;30.03;19.63;;;8.80;99.90;;;;;;8307844;28;20189;-81
2023/03/20 20:16:08;;;;;;;35.67;21.13;;;8.70;99.90;;;;;;8305995;28;20190;-81
2023/03/20 20:20:10;;;;;;;33.63;20.80;;;8.70;99.90;;;;;;8300689;28;20222;-82
2023/03/20 20:24:11;;;;;;;32.43;21.77;;;8.60;99.90;;;;;;8302646;28;20210;-83
2023/03/20 20:28:16;;;;;;;33.50;20.80;;;8.60;99.90;;;;;;8309025;28;20183;-82
2023/03/20 20:32:20;;;;;;;31.27;19.43;;;8.60;99.90;;;;;;8305049;28;20195;-82
2023/03/20 20:36:20;;;;;;;27.40;19.70;;;8.50;99.90;;;;;;8299364;28;20443;-81
2023/03/20 20:40:24;;;;;;;32.07;20.30;;;8.50;99.90;;;;;;8306976;28;20210;-82
2023/03/20 20:44:24;;;;;;;32.23;20.43;;;8.50;99.90;;;;;;8288757;28;20214;-82
2023/03/20 20:48:25;;;;;;;35.60;20.57;;;8.50;99.90;;;;;;8305140;28;20214;-82
2023/03/20 20:52:26;;;;;;;31.40;20.23;;;8.60;99.90;;;;;;8299056;28;20269;-81
2023/03/20 20:56:27;;;;;;;30.57;19.17;;;8.60;99.90;;;;;;8308541;28;20191;-81
2023/03/20 21:00:28;;;;;;;32.63;20.90;;;8.60;99.90;;;;;;8311264;28;20235;-82
2023/03/20 21:04:29;;;;;;;39.37;23.00;;;8.60;99.90;;;;;;8305208;28;20205;-82
2023/03/20 21:08:30;;;;;;;32.67;20.80;;;8.60;99.90;;;;;;8305246;28;20187;-82